Time;durP1;ratioP1;P1;durP2;ratioP2;P2;SDS_P1;SDS_P2;PMS_P1;PMS_P2;Temp;Humidity;BMP_temperature;BMP_pressure;BME280_temperature;BME280_humidity;BME280_pressure;Samples;Min_cycle;Max_cycle;Signal;HPM_P1;HPM_P2
2022/07/22 00:01:04;;;;;;;;;0.00;0.00;;;;;17.71;65.67;102185.66;5032653;28;8835;-66
2022/07/22 00:03:30;;;;;;;;;0.00;0.00;;;;;17.74;65.48;102192.53;5015788;28;9647;-66
2022/07/22 00:05:56;;;;;;;;;0.00;0.00;;;;;17.74;65.42;102182.56;5024209;28;8819;-66
2022/07/22 00:08:23;;;;;;;;;0.75;0.00;;;;;17.72;65.05;102186.50;5031510;28;8989;-66
2022/07/22 00:10:49;;;;;;;;;0.00;0.00;;;;;17.68;65.00;102190.69;5014994;28;9553;-66
2022/07/22 00:13:16;;;;;;;;;1.25;1.00;;;;;17.64;65.17;102184.81;5015077;28;8933;-66
2022/07/22 00:15:42;;;;;;;;;0.50;0.50;;;;;17.62;65.38;102192.31;5023113;28;8837;-66
2022/07/22 00:18:09;;;;;;;;;0.50;0.50;;;;;17.66;65.55;102188.16;5029562;28;8819;-67
2022/07/22 00:20:36;;;;;;;;;2.75;1.00;;;;;17.64;65.35;102186.69;5032385;28;9635;-67
2022/07/22 00:23:02;;;;;;;;;3.00;0.50;;;;;17.60;65.68;102186.25;5032221;28;8945;-67
2022/07/22 00:25:29;;;;;;;;;0.00;0.00;;;;;17.59;65.71;102186.47;5014039;28;8813;-67
2022/07/22 00:27:55;;;;;;;;;0.00;0.00;;;;;17.61;65.88;102185.22;5035339;28;8939;-67
2022/07/22 00:30:22;;;;;;;;;0.75;0.75;;;;;17.63;66.33;102183.13;5022836;28;8924;-66
2022/07/22 00:32:48;;;;;;;;;1.00;0.00;;;;;17.65;65.89;102178.31;5029180;28;8932;-67
2022/07/22 00:35:15;;;;;;;;;1.00;0.00;;;;;17.65;65.77;102180.19;5037392;28;8854;-66
2022/07/22 00:37:41;;;;;;;;;0.00;0.00;;;;;17.62;65.42;102189.59;5027887;28;8931;-66
2022/07/22 00:40:09;;;;;;;;;1.00;1.00;;;;;17.54;65.60;102184.34;5025801;28;8813;-66
2022/07/22 00:42:35;;;;;;;;;0.75;0.75;;;;;17.54;65.99;102181.63;5022623;28;8906;-68
2022/07/22 00:45:03;;;;;;;;;0.33;0.33;;;;;17.55;66.06;102186.91;5035157;28;8829;-67
2022/07/22 00:47:30;;;;;;;;;0.75;0.75;;;;;17.60;65.59;102182.72;5028020;28;8828;-67
2022/07/22 00:49:56;;;;;;;;;0.25;0.25;;;;;17.64;65.94;102178.53;5016115;28;8982;-67
2022/07/22 00:52:24;;;;;;;;;0.25;0.25;;;;;17.66;65.93;102165.53;5029200;28;8821;-67
2022/07/22 00:54:50;;;;;;;;;0.00;0.00;;;;;17.68;65.86;102167.00;5028625;28;8840;-67
2022/07/22 00:57:17;;;;;;;;;0.00;0.00;;;;;17.70;65.88;102175.81;5026223;28;8817;-66
2022/07/22 00:59:44;;;;;;;;;0.00;0.00;;;;;17.70;65.80;102174.94;5031404;28;8947;-67
2022/07/22 01:02:11;;;;;;;;;0.25;0.25;;;;;17.70;66.17;102173.09;5022868;28;8812;-68
2022/07/22 01:04:37;;;;;;;;;0.00;0.00;;;;;17.70;66.30;102167.66;5021991;28;8895;-67
2022/07/22 01:07:04;;;;;;;;;0.75;0.75;;;;;17.67;66.09;102176.22;5011369;28;8831;-66
2022/07/22 01:09:31;;;;;;;;;2.00;1.00;;;;;17.68;66.37;102179.78;5023261;28;8884;-67
2022/07/22 01:11:58;;;;;;;;;1.00;0.00;;;;;17.67;66.29;102170.78;5011621;28;8993;-67
2022/07/22 01:14:25;;;;;;;;;1.00;0.00;;;;;17.67;66.25;102169.94;5023778;28;8819;-67
2022/07/22 01:16:51;;;;;;;;;1.00;0.25;;;;;17.67;65.98;102172.66;5023373;28;8817;-67
2022/07/22 01:19:18;;;;;;;;;0.00;0.00;;;;;17.65;65.95;102172.84;5032296;28;8880;-67
2022/07/22 01:21:46;;;;;;;;;2.50;0.25;;;;;17.62;66.43;102170.53;5019141;28;8847;-67
2022/07/22 01:24:13;;;;;;;;;1.50;0.75;;;;;17.62;65.87;102173.25;5019660;28;8864;-67
2022/07/22 01:26:39;;;;;;;;;1.00;0.25;;;;;17.64;66.14;102154.84;5002927;28;8815;-67
2022/07/22 01:29:07;;;;;;;;;0.75;0.00;;;;;17.66;65.92;102162.78;5008303;28;8850;-67
2022/07/22 01:31:34;;;;;;;;;0.75;0.00;;;;;17.64;65.91;102159.47;5013551;28;8837;-67
2022/07/22 01:34:01;;;;;;;;;0.00;0.00;;;;;17.60;66.04;102164.47;5027339;28;8827;-67
2022/07/22 01:36:29;;;;;;;;;1.50;1.50;;;;;17.60;65.86;102166.38;5025491;28;9599;-67
2022/07/22 01:38:55;;;;;;;;;0.25;0.25;;;;;17.53;65.77;102158.19;5034344;28;8946;-67
2022/07/22 01:41:23;;;;;;;;;0.00;0.00;;;;;17.53;65.75;102155.47;5021897;28;8838;-67
2022/07/22 01:43:49;;;;;;;;;0.00;0.00;;;;;17.53;65.90;102158.19;5028224;28;8834;-67
2022/07/22 01:46:16;;;;;;;;;1.75;0.25;;;;;17.53;65.83;102153.56;5022451;28;9555;-67
2022/07/22 01:48:43;;;;;;;;;0.25;0.25;;;;;17.54;65.67;102149.84;5020456;28;8803;-67
2022/07/22 01:51:10;;;;;;;;;0.00;0.00;;;;;17.57;65.69;102145.00;5025573;28;8957;-67
2022/07/22 01:53:37;;;;;;;;;0.00;0.00;;;;;17.60;66.07;102153.59;5025927;28;8933;-67
2022/07/22 01:56:04;;;;;;;;;1.50;0.50;;;;;17.61;66.11;102160.69;5038362;28;8833;-67
2022/07/22 01:58:36;;;;;;;;;1.00;0.00;;;;;17.61;65.92;102154.44;5010018;28;8837;-67
2022/07/22 02:01:08;;;;;;;;;0.75;0.75;;;;;17.54;65.86;102159.84;5027225;28;8801;-67
2022/07/22 02:03:35;;;;;;;;;1.50;0.50;;;;;17.54;66.06;102168.03;5022655;28;8861;-67
2022/07/22 02:06:02;;;;;;;;;0.00;0.00;;;;;17.56;65.97;102157.78;5017055;28;9017;-67
2022/07/22 02:08:28;;;;;;;;;0.00;0.00;;;;;17.58;66.21;102152.94;5028792;28;8817;-67
2022/07/22 02:11:18;;;;;;;;;0.00;0.00;;;;;17.59;65.95;102149.19;5026614;28;8839;-67
2022/07/22 02:13:52;;;;;;;;;1.00;1.00;;;;;17.57;65.90;102151.28;5018735;28;8825;-67
2022/07/22 02:16:19;;;;;;;;;0.00;0.00;;;;;17.57;66.39;102142.28;5010662;28;8807;-67
2022/07/22 02:18:48;;;;;;;;;0.00;0.00;;;;;17.55;66.08;102148.78;5028138;28;8933;-67
2022/07/22 02:21:15;;;;;;;;;0.00;0.00;;;;;17.56;66.15;102149.59;5015787;28;8823;-67
2022/07/22 02:23:41;;;;;;;;;0.00;0.00;;;;;17.57;65.97;102143.09;5025171;28;8903;-67
2022/07/22 02:26:08;;;;;;;;;1.00;0.00;;;;;17.57;66.33;102145.84;5030457;28;8824;-67
2022/07/22 02:28:35;;;;;;;;;1.50;0.00;;;;;17.57;66.39;102140.38;5024176;28;8900;-67
2022/07/22 02:31:02;;;;;;;;;0.00;0.00;;;;;17.57;66.10;102139.56;5014842;28;8833;-67
2022/07/22 02:33:29;;;;;;;;;0.50;0.00;;;;;17.57;66.04;102134.09;5024390;28;8846;-67
2022/07/22 02:35:57;;;;;;;;;0.00;0.00;;;;;17.55;66.13;102137.88;5013626;28;8835;-67
2022/07/22 02:38:25;;;;;;;;;1.00;1.00;;;;;17.56;65.93;102141.44;5026770;28;8849;-67
2022/07/22 02:40:52;;;;;;;;;1.00;1.00;;;;;17.55;65.87;102137.88;5010470;28;8813;-67
2022/07/22 02:43:18;;;;;;;;;0.00;0.00;;;;;17.51;65.92;102133.06;5024146;28;8883;-67
2022/07/22 02:45:45;;;;;;;;;0.00;0.00;;;;;17.47;65.24;102129.91;5027393;28;8826;-67
2022/07/22 02:48:11;;;;;;;;;0.50;0.50;;;;;17.44;65.40;102141.22;5024679;28;8838;-67
2022/07/22 02:50:38;;;;;;;;;1.00;1.00;;;;;17.45;65.71;102132.00;5026607;28;9518;-67
2022/07/22 02:53:06;;;;;;;;;0.00;0.00;;;;;17.44;65.39;102140.38;5010157;28;8809;-67
2022/07/22 02:55:37;;;;;;;;;0.25;0.00;;;;;17.42;64.63;102143.31;5013127;28;8934;-67
2022/07/22 02:58:08;;;;;;;;;0.25;0.25;;;;;17.40;64.81;102145.41;5020429;28;8962;-67
2022/07/22 03:00:37;;;;;;;;;0.50;0.50;;;;;17.41;64.96;102143.53;5025083;28;8948;-67
2022/07/22 03:03:05;;;;;;;;;0.00;0.00;;;;;17.41;65.10;102144.34;5029091;28;8844;-67
2022/07/22 03:05:32;;;;;;;;;0.00;0.00;;;;;17.45;65.08;102148.34;5024971;28;8825;-67
2022/07/22 03:08:25;;;;;;;;;0.25;0.25;;;;;17.48;64.89;102147.94;5011856;28;8830;-67
2022/07/22 03:10:53;;;;;;;;;0.00;0.00;;;;;17.49;64.58;102146.03;5030158;28;8926;-67
2022/07/22 03:13:21;;;;;;;;;0.00;0.00;;;;;17.49;65.20;102149.59;4997235;28;8823;-67
2022/07/22 03:15:47;;;;;;;;;0.75;0.00;;;;;17.50;65.19;102148.56;5025673;28;8903;-67
2022/07/22 03:18:14;;;;;;;;;0.00;0.00;;;;;17.49;65.03;102146.88;5028556;28;8883;-67
2022/07/22 03:20:41;;;;;;;;;0.00;0.00;;;;;17.50;64.72;102150.44;5016894;28;8846;-67
2022/07/22 03:23:07;;;;;;;;;0.00;0.00;;;;;17.50;64.89;102154.00;5016590;28;8837;-67
2022/07/22 03:25:34;;;;;;;;;0.00;0.00;;;;;17.48;64.66;102152.53;5035865;28;8823;-67
2022/07/22 03:28:02;;;;;;;;;0.00;0.00;;;;;17.47;64.18;102150.88;5023782;28;8815;-67
2022/07/22 03:30:28;;;;;;;;;0.75;0.00;;;;;17.46;64.45;102152.75;5025647;28;8832;-67
2022/07/22 03:32:56;;;;;;;;;0.00;0.00;;;;;17.46;64.40;102144.59;5014377;28;8926;-67
2022/07/22 03:35:24;;;;;;;;;0.00;0.00;;;;;17.47;64.56;102146.25;5029392;28;9351;-67
2022/07/22 03:37:51;;;;;;;;;0.00;0.00;;;;;17.50;64.69;102153.16;5021765;28;8832;-67
2022/07/22 03:40:17;;;;;;;;;0.00;0.00;;;;;17.46;64.57;102150.03;5025041;28;8819;-67
2022/07/22 03:42:44;;;;;;;;;0.00;0.00;;;;;17.46;64.34;102146.44;5009573;28;8862;-67
2022/07/22 03:45:12;;;;;;;;;0.25;0.25;;;;;17.47;64.41;102151.69;5018346;28;8931;-67
2022/07/22 03:47:40;;;;;;;;;0.00;0.00;;;;;17.47;64.12;102145.44;5007083;28;8814;-67
2022/07/22 03:50:07;;;;;;;;;0.00;0.00;;;;;17.46;64.09;102146.44;5021536;28;9576;-67
2022/07/22 03:52:34;;;;;;;;;1.50;0.00;;;;;17.48;64.11;102152.53;5024855;28;9557;-67
2022/07/22 03:55:04;;;;;;;;;0.25;0.00;;;;;17.49;63.85;102146.88;5032192;28;9566;-67
2022/07/22 03:57:31;;;;;;;;;0.00;0.00;;;;;17.49;64.26;102146.03;5007571;28;9583;-67
2022/07/22 04:00:07;;;;;;;;;0.00;0.00;;;;;17.49;64.37;102135.16;5015164;28;8838;-67
2022/07/22 04:02:39;;;;;;;;;0.50;0.50;;;;;17.48;64.24;102136.19;5032746;28;8822;-67
2022/07/22 04:05:12;;;;;;;;;0.00;0.00;;;;;17.51;63.72;102135.78;5014185;28;8862;-67
2022/07/22 04:07:39;;;;;;;;;0.00;0.00;;;;;17.51;64.09;102138.50;5018312;28;8862;-67
2022/07/22 04:10:06;;;;;;;;;0.00;0.00;;;;;17.50;64.09;102139.53;5007549;28;9537;-67
2022/07/22 04:12:39;;;;;;;;;0.25;0.25;;;;;17.46;63.93;102132.84;5031534;28;8830;-67
2022/07/22 04:15:26;;;;;;;;;0.00;0.00;;;;;17.45;63.64;102139.34;5024726;28;8835;-67
2022/07/22 04:17:53;;;;;;;;;0.00;0.00;;;;;17.47;63.83;102134.53;5014330;28;8819;-67
2022/07/22 04:20:19;;;;;;;;;0.00;0.00;;;;;17.47;63.83;102137.25;5032933;28;8830;-67
2022/07/22 04:23:04;;;;;;;;;0.00;0.00;;;;;17.44;63.67;102127.59;5037109;28;8824;-67
2022/07/22 04:25:31;;;;;;;;;0.00;0.00;;;;;17.45;63.32;102125.72;5028720;28;8875;-67
2022/07/22 04:27:57;;;;;;;;;0.00;0.00;;;;;17.47;63.24;102129.91;5015509;28;8820;-67
2022/07/22 04:30:25;;;;;;;;;0.00;0.00;;;;;17.49;63.21;102127.81;5038504;28;8874;-66
2022/07/22 04:32:52;;;;;;;;;1.00;0.00;;;;;17.46;63.33;102130.97;5022899;28;8828;-67
2022/07/22 04:35:20;;;;;;;;;0.00;0.00;;;;;17.48;63.38;102133.47;5030189;28;8807;-67
2022/07/22 04:38:00;;;;;;;;;1.00;0.00;;;;;17.48;63.17;102133.47;5014068;28;8811;-67
2022/07/22 04:40:27;;;;;;;;;0.75;0.00;;;;;17.46;63.19;102121.94;5027136;28;8945;-67
2022/07/22 04:42:54;;;;;;;;;1.00;0.00;;;;;17.45;63.11;102126.56;5036065;28;8896;-67
2022/07/22 04:45:20;;;;;;;;;1.00;1.00;;;;;17.49;63.40;102124.25;5028447;28;10163;-67
2022/07/22 04:47:47;;;;;;;;;0.00;0.00;;;;;17.51;63.39;102117.56;5021737;28;8837;-67
2022/07/22 04:50:13;;;;;;;;;0.00;0.00;;;;;17.52;63.00;102121.13;5006652;28;9552;-67
2022/07/22 04:52:40;;;;;;;;;0.00;0.00;;;;;17.52;63.25;102126.56;5017354;28;8807;-67
2022/07/22 04:55:14;;;;;;;;;0.00;0.00;;;;;17.53;62.91;102122.78;5023193;28;8828;-67
2022/07/22 04:57:41;;;;;;;;;0.00;0.00;;;;;17.53;62.64;102123.63;5032527;28;8813;-67
2022/07/22 05:00:08;;;;;;;;;0.00;0.00;;;;;17.55;63.02;102118.81;5001693;28;8814;-67
2022/07/22 05:02:44;;;;;;;;;0.00;0.00;;;;;17.54;62.79;102125.31;5024486;28;8959;-67
2022/07/22 05:05:11;;;;;;;;;0.00;0.00;;;;;17.55;62.73;102131.59;5029946;28;8924;-66
2022/07/22 05:07:37;;;;;;;;;0.00;0.00;;;;;17.53;62.84;102137.25;5007668;28;8824;-66
2022/07/22 05:10:04;;;;;;;;;1.00;1.00;;;;;17.53;62.56;102134.53;5021058;28;8817;-67
2022/07/22 05:12:31;;;;;;;;;0.00;0.00;;;;;17.54;62.61;102136.22;5028011;28;8821;-66
2022/07/22 05:14:59;;;;;;;;;0.00;0.00;;;;;17.57;62.48;102139.56;5030165;28;8820;-67
2022/07/22 05:17:25;;;;;;;;;0.00;0.00;;;;;17.57;61.97;102136.81;5027269;28;8947;-67
2022/07/22 05:20:06;;;;;;;;;0.00;0.00;;;;;17.53;62.34;102136.41;5027144;28;8783;-67
2022/07/22 05:22:33;;;;;;;;;1.00;1.00;;;;;17.49;62.54;102129.69;5020931;28;8859;-66
2022/07/22 05:25:07;;;;;;;;;0.75;0.50;;;;;17.46;61.86;102127.38;5026422;28;8846;-66
2022/07/22 05:27:34;;;;;;;;;0.50;0.00;;;;;17.46;61.75;102138.28;5009035;28;8833;-66
2022/07/22 05:30:00;;;;;;;;;0.00;0.00;;;;;17.44;61.58;102141.22;5034763;28;8917;-66
2022/07/22 05:32:28;;;;;;;;;1.00;0.00;;;;;17.44;61.62;102143.09;5013850;28;8824;-67
2022/07/22 05:34:59;;;;;;;;;0.50;0.50;;;;;17.42;61.24;102148.78;5011250;28;8947;-66
2022/07/22 05:37:28;;;;;;;;;1.00;1.00;;;;;17.41;61.36;102138.91;5013727;28;8823;-67
2022/07/22 05:39:55;;;;;;;;;1.00;1.00;;;;;17.45;61.10;102145.63;5013445;28;8944;-67
2022/07/22 05:42:22;;;;;;;;;1.00;0.00;;;;;17.48;61.35;102139.75;5026855;28;8824;-66
2022/07/22 05:44:48;;;;;;;;;0.75;0.00;;;;;17.51;61.55;102138.50;5004991;28;8839;-67
2022/07/22 05:47:15;;;;;;;;;0.00;0.00;;;;;17.48;61.16;102147.94;5016583;28;8855;-66
2022/07/22 05:49:41;;;;;;;;;0.75;0.75;;;;;17.48;61.03;102141.66;5026132;28;8807;-66
2022/07/22 05:52:11;;;;;;;;;1.00;1.00;;;;;17.48;60.59;102144.38;5034660;28;8810;-67
2022/07/22 05:54:39;;;;;;;;;0.00;0.00;;;;;17.49;60.32;102141.44;5012119;28;8826;-66
2022/07/22 05:57:09;;;;;;;;;0.00;0.00;;;;;17.51;60.44;102154.84;5031697;28;8882;-67
2022/07/22 05:59:37;;;;;;;;;0.25;0.25;;;;;17.50;60.28;102137.69;4999076;28;8821;-66
2022/07/22 06:02:04;;;;;;;;;0.75;0.00;;;;;17.52;60.38;102137.47;5032891;28;8815;-65
2022/07/22 06:04:40;;;;;;;;;0.00;0.00;;;;;17.52;60.83;102149.19;5027008;28;8809;-66
2022/07/22 06:07:08;;;;;;;;;0.25;0.25;;;;;17.53;60.64;102134.53;5009770;28;8819;-66
2022/07/22 06:09:35;;;;;;;;;0.50;0.50;;;;;17.55;60.48;102131.59;5016369;28;9291;-66
2022/07/22 06:12:01;;;;;;;;;1.00;0.00;;;;;17.58;60.31;102136.59;5010431;28;8946;-66
2022/07/22 06:14:29;;;;;;;;;0.00;0.00;;;;;17.62;60.51;102143.31;5009625;28;8937;-66
2022/07/22 06:16:56;;;;;;;;;0.00;0.00;;;;;17.62;60.31;102137.03;5036422;28;8812;-65
2022/07/22 06:19:24;;;;;;;;;0.00;0.00;;;;;17.61;59.89;102138.91;5007824;28;8888;-66
2022/07/22 06:21:50;;;;;;;;;0.75;0.00;;;;;17.59;59.32;102135.59;5033214;28;8805;-65
2022/07/22 06:24:17;;;;;;;;;0.50;0.50;;;;;17.59;59.68;102141.03;5030780;28;8827;-66
2022/07/22 06:26:44;;;;;;;;;0.00;0.00;;;;;17.61;59.89;102141.66;5024556;28;8810;-66
2022/07/22 06:29:11;;;;;;;;;1.00;1.00;;;;;17.63;60.04;102139.56;5008025;28;8799;-65
2022/07/22 06:31:38;;;;;;;;;1.00;0.75;;;;;17.63;60.07;102136.84;5019354;28;8819;-66
2022/07/22 06:34:05;;;;;;;;;0.50;0.50;;;;;17.62;60.23;102142.47;5040732;28;9515;-65
2022/07/22 06:36:46;;;;;;;;;0.00;0.00;;;;;17.61;59.96;102136.19;5020417;28;8917;-65
2022/07/22 06:39:13;;;;;;;;;0.25;0.25;;;;;17.60;60.00;102148.16;5030371;28;9521;-66
2022/07/22 06:41:58;;;;;;;;;0.00;0.00;;;;;17.58;59.13;102149.38;5029785;28;8816;-67
2022/07/22 06:44:43;;;;;;;;;0.25;0.25;;;;;17.57;58.67;102145.00;5023998;28;8957;-66
2022/07/22 06:47:18;;;;;;;;;0.25;0.25;;;;;17.54;58.65;102147.09;5008812;28;8939;-66
2022/07/22 06:49:44;;;;;;;;;0.00;0.00;;;;;17.50;58.26;102142.25;5037915;28;8815;-65
2022/07/22 06:52:11;;;;;;;;;1.00;1.00;;;;;17.47;58.14;102134.53;5008710;28;8949;-66
2022/07/22 06:54:37;;;;;;;;;0.00;0.00;;;;;17.48;58.11;102150.66;5011888;28;8789;-66
2022/07/22 06:57:04;;;;;;;;;0.50;0.50;;;;;17.50;58.46;102144.97;5025605;28;8825;-66
2022/07/22 06:59:33;;;;;;;;;0.00;0.00;;;;;17.56;58.56;102138.72;5030547;28;8893;-65
2022/07/22 07:02:05;;;;;;;;;0.00;0.00;;;;;17.62;58.15;102137.03;5014720;28;8823;-66
2022/07/22 07:04:36;;;;;;;;;0.00;0.00;;;;;17.71;58.27;102133.06;5015865;28;8844;-66
2022/07/22 07:07:03;;;;;;;;;1.00;0.00;;;;;17.66;56.89;102135.56;5016417;28;8832;-66
2022/07/22 07:09:30;;;;;;;;;0.75;0.75;;;;;17.66;57.21;102133.72;5032462;28;8816;-65
2022/07/22 07:12:06;;;;;;;;;1.00;1.00;;;;;17.68;57.18;102136.22;5018055;28;8869;-66
2022/07/22 07:14:53;;;;;;;;;0.00;0.00;;;;;17.72;57.17;102141.03;5036835;28;8815;-66
2022/07/22 07:17:39;;;;;;;;;0.00;0.00;;;;;17.77;56.87;102133.09;5022621;28;8884;-66
2022/07/22 07:20:09;;;;;;;;;1.25;1.00;;;;;17.81;57.07;102130.78;5008585;28;8811;-66
2022/07/22 07:22:36;;;;;;;;;1.00;1.00;;;;;17.85;56.85;102144.81;5025450;28;8854;-66
2022/07/22 07:25:07;;;;;;;;;0.00;0.00;;;;;17.89;56.81;102148.78;5009210;28;8816;-67
2022/07/22 07:27:52;;;;;;;;;0.00;0.00;;;;;17.92;56.70;102145.66;5020058;28;8796;-66
2022/07/22 07:30:22;;;;;;;;;0.25;0.25;;;;;17.89;56.00;102148.78;5029713;28;8907;-66
2022/07/22 07:32:49;;;;;;;;;1.00;0.50;;;;;17.86;56.07;102139.16;5030516;28;9533;-66
2022/07/22 07:35:15;;;;;;;;;0.50;0.50;;;;;17.89;56.06;102143.34;5029072;28;8840;-66
2022/07/22 07:37:42;;;;;;;;;0.00;0.00;;;;;17.92;56.13;102143.78;5005840;28;9544;-65
2022/07/22 07:40:09;;;;;;;;;0.00;0.00;;;;;17.94;55.85;102146.25;5016952;28;9575;-70
2022/07/22 07:42:35;;;;;;;;;1.00;1.00;;;;;17.98;55.53;102142.06;5016884;28;8846;-65
2022/07/22 07:45:11;;;;;;;;;0.75;0.00;;;;;18.00;55.83;102146.28;5001311;28;8858;-66
2022/07/22 07:47:38;;;;;;;;;1.00;0.00;;;;;18.06;55.51;102150.03;5008754;28;8885;-65
2022/07/22 07:50:07;;;;;;;;;0.00;0.00;;;;;18.07;55.85;102142.69;5045321;28;8849;-66
2022/07/22 07:52:42;;;;;;;;;0.00;0.00;;;;;18.09;55.86;102151.50;5030622;28;8863;-66
2022/07/22 07:55:19;;;;;;;;;0.00;0.00;;;;;18.03;55.15;102145.84;5032874;28;8811;-65
2022/07/22 07:57:48;;;;;;;;;0.00;0.00;;;;;18.04;54.80;102143.97;5029759;28;8861;-65
2022/07/22 08:00:21;;;;;;;;;0.00;0.00;;;;;18.00;54.73;102140.00;5003071;28;8907;-65
2022/07/22 08:02:48;;;;;;;;;2.00;0.75;;;;;17.97;54.64;102146.69;5021503;28;8874;-66
2022/07/22 08:05:16;;;;;;;;;0.00;0.00;;;;;18.01;54.40;102147.09;5018192;28;8901;-65
2022/07/22 08:07:43;;;;;;;;;1.75;1.00;;;;;17.99;53.99;102147.31;5014516;28;8815;-67
2022/07/22 08:10:10;;;;;;;;;0.00;0.00;;;;;17.94;54.44;102143.53;5003877;28;8892;-69
2022/07/22 08:13:03;;;;;;;;;0.00;0.00;;;;;18.00;54.77;102140.81;5006430;28;8821;-68
2022/07/22 08:15:42;;;;;;;;;0.00;0.00;;;;;18.07;55.00;102145.41;5030252;28;9517;-67
2022/07/22 08:18:16;;;;;;;;;2.00;2.00;;;;;18.03;53.99;102139.56;5006031;28;8827;-66
2022/07/22 08:20:43;;;;;;;;;0.00;0.00;;;;;18.03;53.94;102139.56;5031686;28;9494;-66
2022/07/22 08:23:12;;;;;;;;;1.00;0.25;;;;;18.08;54.07;102142.50;5044216;28;9563;-66
2022/07/22 08:25:42;;;;;;;;;0.00;0.00;;;;;18.06;53.15;102143.75;5035976;28;8850;-67
2022/07/22 08:28:09;;;;;;;;;2.00;2.00;;;;;18.12;53.51;102138.28;4998120;28;8811;-66
2022/07/22 08:30:36;;;;;;;;;0.00;0.00;;;;;18.17;53.61;102135.75;5030912;28;8826;-65
2022/07/22 08:33:03;;;;;;;;;0.00;0.00;;;;;18.26;53.88;102134.47;5026182;28;8824;-65
2022/07/22 08:35:29;;;;;;;;;0.25;0.25;;;;;18.32;53.18;102138.25;5014156;28;8827;-65
2022/07/22 08:37:56;;;;;;;;;0.50;0.50;;;;;18.32;52.75;102146.44;5012918;28;8847;-66
2022/07/22 08:40:24;;;;;;;;;0.50;0.50;;;;;18.34;52.75;102146.19;5010643;28;8840;-65
2022/07/22 08:42:51;;;;;;;;;0.00;0.00;;;;;18.34;52.67;102138.84;5029648;28;8822;-65
2022/07/22 08:45:19;;;;;;;;;0.50;0.00;;;;;18.38;52.84;102129.19;5012327;28;8832;-66
2022/07/22 08:47:51;;;;;;;;;0.00;0.00;;;;;18.41;52.73;102130.66;5030344;28;8830;-66
2022/07/22 08:50:21;;;;;;;;;1.00;0.00;;;;;18.35;52.74;102126.91;5030973;28;8858;-65
2022/07/22 08:52:53;;;;;;;;;0.75;0.75;;;;;18.40;52.67;102126.28;5030253;28;8901;-66
2022/07/22 08:55:20;;;;;;;;;0.00;0.00;;;;;18.44;52.87;102122.06;5012798;28;8827;-66
2022/07/22 08:57:50;;;;;;;;;0.00;0.00;;;;;18.49;52.47;102122.25;5026069;28;8834;-65
2022/07/22 09:00:20;;;;;;;;;0.00;0.00;;;;;18.60;52.79;102115.28;5010639;28;8817;-65
2022/07/22 09:02:48;;;;;;;;;0.00;0.00;;;;;18.67;52.41;102110.63;5010734;28;8814;-65
2022/07/22 09:05:16;;;;;;;;;0.00;0.00;;;;;18.71;52.29;102112.72;5031482;28;8826;-65
2022/07/22 09:08:05;;;;;;;;;0.00;0.00;;;;;18.64;51.66;102111.91;5025095;28;8819;-65
2022/07/22 09:10:43;;;;;;;;;0.00;0.00;;;;;18.65;51.82;102105.38;5010395;28;8839;-67
2022/07/22 09:13:35;;;;;;;;;0.00;0.00;;;;;18.70;52.25;102105.59;5017379;28;8829;-67
2022/07/22 09:16:14;;;;;;;;;0.00;0.00;;;;;18.71;52.00;102106.44;5012977;28;9595;-66
2022/07/22 09:18:53;;;;;;;;;0.75;0.00;;;;;18.69;51.66;102105.81;5027198;28;8822;-66
2022/07/22 09:21:41;;;;;;;;;0.00;0.00;;;;;18.62;51.21;102105.81;5029105;28;8831;-67
2022/07/22 09:24:34;;;;;;;;;1.00;0.00;;;;;18.71;51.75;102103.72;5011474;28;8825;-66
2022/07/22 09:27:10;;;;;;;;;0.00;0.00;;;;;18.78;51.66;102096.34;5029061;28;8814;-67
2022/07/22 09:29:53;;;;;;;;;0.00;0.00;;;;;18.76;51.18;102106.63;5004481;28;8834;-65
2022/07/22 09:32:23;;;;;;;;;0.00;0.00;;;;;18.80;50.80;102107.88;5006770;28;8829;-65
2022/07/22 09:35:01;;;;;;;;;0.00;0.00;;;;;18.88;51.10;102104.91;5031039;28;8811;-66
2022/07/22 09:37:30;;;;;;;;;0.00;0.00;;;;;18.95;51.40;102105.66;5029630;28;8941;-65
2022/07/22 09:40:19;;;;;;;;;0.25;0.00;;;;;18.99;51.06;102104.19;5012545;28;8810;-66
2022/07/22 09:42:52;;;;;;;;;0.00;0.00;;;;;19.07;51.25;102102.25;5011126;28;9814;-65
2022/07/22 09:45:20;;;;;;;;;0.00;0.00;;;;;19.10;50.99;102104.53;5013023;28;9787;-65
2022/07/22 09:47:48;;;;;;;;;0.00;0.00;;;;;19.10;51.14;102108.09;5030397;28;8990;-66
2022/07/22 09:50:48;;;;;;;;;0.00;0.00;;;;;19.02;50.51;102111.94;5013071;28;8956;-65
2022/07/22 09:53:22;;;;;;;;;0.00;0.00;;;;;18.95;50.80;102110.28;5010351;28;8825;-65
2022/07/22 09:56:12;;;;;;;;;0.00;0.00;;;;;19.00;51.12;102115.94;5019465;28;9577;-66
2022/07/22 09:58:41;;;;;;;;;1.00;0.00;;;;;19.05;51.30;102113.41;5012703;28;8811;-66
2022/07/22 10:01:30;;;;;;;;;0.00;0.00;;;;;19.15;51.22;102110.16;5029467;28;8900;-66
2022/07/22 10:03:58;;;;;;;;;1.00;1.00;;;;;19.26;50.79;102114.94;5012897;28;8819;-66
2022/07/22 10:06:26;;;;;;;;;0.00;0.00;;;;;19.39;50.04;102111.25;5012563;28;8986;-67
2022/07/22 10:08:53;;;;;;;;;0.00;0.00;;;;;19.36;49.74;102114.44;5017276;28;8819;-66
2022/07/22 10:11:27;;;;;;;;;0.00;0.00;;;;;19.33;49.54;102123.91;5016973;28;8828;-66
2022/07/22 10:13:55;;;;;;;;;0.00;0.00;;;;;19.27;50.01;102122.88;5010394;28;8826;-64
2022/07/22 10:16:22;;;;;;;;;1.00;0.00;;;;;19.20;49.97;102118.53;5021825;28;8912;-65
2022/07/22 10:18:49;;;;;;;;;0.25;0.00;;;;;19.20;50.20;102126.72;5008835;28;8838;-65
2022/07/22 10:21:18;;;;;;;;;1.00;1.00;;;;;19.09;49.60;102120.09;5030056;28;8888;-65
2022/07/22 10:24:12;;;;;;;;;0.00;0.00;;;;;19.05;50.18;102127.03;5031421;28;9591;-66
2022/07/22 10:26:53;;;;;;;;;0.25;0.25;;;;;19.08;50.84;102129.34;5011250;28;9612;-66
2022/07/22 10:29:30;;;;;;;;;0.00;0.00;;;;;19.12;50.97;102127.84;5021810;28;9543;-67
2022/07/22 10:32:15;;;;;;;;;0.75;0.75;;;;;19.18;51.13;102126.13;5012755;28;8971;-66
2022/07/22 10:38:13;;;;;;;;;1.00;1.00;;;;;19.13;50.92;102113.13;4998627;28;8847;-67
2022/07/22 10:40:49;;;;;;;;;0.00;0.00;;;;;19.03;51.42;102118.22;5034542;28;8957;-66
2022/07/22 10:43:21;;;;;;;;;0.00;0.00;;;;;19.02;51.64;102114.66;5049577;28;8880;-67
2022/07/22 10:45:52;;;;;;;;;0.00;0.00;;;;;19.07;51.78;102114.00;5034137;28;8911;-67
2022/07/22 10:48:20;;;;;;;;;0.00;0.00;;;;;19.03;51.05;102112.75;5032704;28;8892;-66
2022/07/22 10:50:50;;;;;;;;;0.00;0.00;;;;;19.03;51.55;102119.06;5029249;28;8842;-67
2022/07/22 10:53:16;;;;;;;;;0.00;0.00;;;;;19.07;51.63;102119.44;5034240;28;8853;-65
2022/07/22 10:56:02;;;;;;;;;0.00;0.00;;;;;19.10;51.90;102118.19;5034119;28;8827;-67
2022/07/22 10:58:34;;;;;;;;;0.50;0.50;;;;;19.10;51.46;102121.75;5033670;28;8837;-67
2022/07/22 11:01:07;;;;;;;;;0.00;0.00;;;;;19.14;52.13;102114.78;5031581;28;8811;-66
2022/07/22 11:03:35;;;;;;;;;0.00;0.00;;;;;19.23;52.18;102118.09;5021888;28;8939;-66
2022/07/22 11:06:25;;;;;;;;;0.00;0.00;;;;;19.24;52.04;102122.47;5014056;28;9018;-66
2022/07/22 11:08:58;;;;;;;;;0.00;0.00;;;;;19.24;51.10;102120.63;5028163;28;8945;-66
2022/07/22 11:11:52;;;;;;;;;0.00;0.00;;;;;19.30;51.19;102118.06;5020375;28;8845;-66
2022/07/22 11:14:26;;;;;;;;;1.00;0.00;;;;;19.34;51.18;102116.56;5024313;28;8921;-66
2022/07/22 11:16:59;;;;;;;;;0.00;0.00;;;;;19.36;51.35;102108.97;5032065;28;8880;-66
2022/07/22 11:19:28;;;;;;;;;0.75;0.75;;;;;19.37;51.55;102106.03;5020160;28;8817;-66
2022/07/22 11:22:16;;;;;;;;;0.00;0.00;;;;;19.36;51.13;102095.31;5013715;28;9516;-66
2022/07/22 11:24:48;;;;;;;;;0.00;0.00;;;;;19.32;51.00;102105.84;5013696;28;8906;-66
2022/07/22 11:27:17;;;;;;;;;0.25;0.25;;;;;19.38;51.27;102096.78;5017193;28;8842;-66
2022/07/22 11:29:48;;;;;;;;;0.00;0.00;;;;;19.43;51.94;102090.63;5032561;28;8819;-67
2022/07/22 11:32:15;;;;;;;;;0.25;0.25;;;;;19.40;51.00;102097.38;5031977;28;8811;-67
2022/07/22 11:34:46;;;;;;;;;0.50;0.50;;;;;19.37;51.09;102091.53;5033238;28;9521;-67
2022/07/22 11:37:15;;;;;;;;;0.00;0.00;;;;;19.40;51.24;102085.63;5014766;28;8834;-67
2022/07/22 11:39:41;;;;;;;;;0.25;0.00;;;;;19.45;51.63;102088.53;5027721;28;8896;-67
2022/07/22 11:42:08;;;;;;;;;0.25;0.25;;;;;19.43;51.38;102086.00;5027189;28;8819;-66
2022/07/22 11:44:38;;;;;;;;;0.00;0.00;;;;;19.36;51.65;102085.22;5031115;28;8925;-67
2022/07/22 11:47:07;;;;;;;;;0.25;0.00;;;;;19.34;51.66;102081.88;5021683;28;8952;-66
2022/07/22 11:49:36;;;;;;;;;1.00;1.00;;;;;19.31;51.97;102076.03;5024682;28;8927;-66
2022/07/22 11:52:13;;;;;;;;;0.00;0.00;;;;;19.34;52.09;102073.69;5031668;28;8924;-66